createdAt,value
2023-05-22T00:01:43.578Z,17.23
2023-05-22T00:06:00.880Z,16.10
2023-05-22T00:10:18.369Z,15.55
2023-05-22T00:14:35.810Z,15.15
2023-05-22T00:18:53.378Z,14.18
2023-05-22T00:23:12.186Z,13.60
2023-05-22T00:27:30.580Z,15.50
2023-05-22T00:31:48.204Z,13.30
2023-05-22T00:36:06.177Z,15.60
2023-05-22T00:40:23.594Z,15.53
2023-05-22T00:44:41.987Z,16.40
2023-05-22T00:48:59.390Z,16.70
2023-05-22T00:53:19.647Z,14.90
2023-05-22T00:57:40.312Z,17.15
2023-05-22T01:01:58.407Z,14.82
2023-05-22T01:06:18.711Z,18.10
2023-05-22T01:10:38.734Z,15.00
2023-05-22T01:15:06.138Z,15.00
2023-05-22T01:19:42.267Z,15.65
2023-05-22T01:24:31.208Z,15.65
2023-05-22T01:29:26.225Z,16.50
2023-05-22T01:33:51.705Z,16.05
2023-05-22T01:38:11.071Z,15.38
2023-05-22T01:42:28.598Z,16.52
2023-05-22T01:46:46.169Z,16.63
2023-05-22T01:51:12.034Z,17.25
2023-05-22T01:55:36.389Z,17.05
2023-05-22T01:59:59.797Z,17.00
2023-05-22T02:04:19.952Z,16.15
2023-05-22T02:08:39.833Z,18.15
2023-05-22T02:12:57.589Z,15.95
2023-05-22T02:17:14.919Z,16.58
2023-05-22T02:21:35.751Z,19.05
2023-05-22T02:25:53.377Z,16.92
2023-05-22T02:30:11.969Z,15.75
2023-05-22T02:34:29.792Z,18.77
2023-05-22T02:38:47.411Z,19.65
2023-05-22T02:43:04.827Z,17.98
2023-05-22T02:47:23.709Z,17.98
2023-05-22T02:55:59.032Z,18.13
2023-05-22T03:00:17.029Z,22.13
2023-05-22T03:04:38.321Z,18.53
2023-05-22T03:08:55.792Z,19.30
2023-05-22T03:13:13.066Z,22.27
2023-05-22T03:17:30.531Z,20.55
2023-05-22T03:21:50.128Z,26.20
2023-05-22T03:26:07.589Z,24.10
2023-05-22T03:30:24.866Z,22.60
2023-05-22T03:34:42.180Z,23.42
2023-05-22T03:38:59.746Z,20.88
2023-05-22T03:43:17.192Z,23.88
2023-05-22T03:47:34.750Z,23.90
2023-05-22T03:51:51.969Z,25.73
2023-05-22T03:56:09.222Z,26.73
2023-05-22T04:00:27.187Z,30.48
2023-05-22T04:04:46.263Z,19.60
2023-05-22T04:09:04.583Z,24.95
2023-05-22T04:13:21.918Z,21.90
2023-05-22T04:17:41.636Z,22.13
2023-05-22T04:21:59.536Z,22.17
2023-05-22T04:26:18.169Z,31.17
2023-05-22T04:30:37.637Z,24.52
2023-05-22T04:34:58.547Z,22.98
2023-05-22T04:39:15.834Z,21.45
2023-05-22T04:43:33.800Z,20.38
2023-05-22T04:47:53.258Z,21.10
2023-05-22T04:52:11.696Z,19.90
2023-05-22T04:56:36.378Z,18.77
2023-05-22T05:00:55.055Z,16.88
2023-05-22T05:05:12.355Z,18.00
2023-05-22T05:09:29.704Z,19.55
2023-05-22T05:13:46.961Z,17.27
2023-05-22T05:18:04.657Z,21.25
2023-05-22T05:22:22.076Z,22.25
2023-05-22T05:26:42.053Z,26.27
2023-05-22T05:30:59.421Z,19.98
2023-05-22T05:35:17.044Z,21.15
2023-05-22T05:39:34.675Z,22.65
2023-05-22T05:43:52.572Z,23.17
2023-05-22T05:48:10.187Z,21.63
2023-05-22T05:52:32.524Z,20.45
2023-05-22T05:56:49.913Z,19.67
2023-05-22T06:01:07.348Z,18.75
2023-05-22T06:05:25.040Z,16.83
2023-05-22T06:09:42.731Z,15.98
2023-05-22T06:14:01.415Z,18.58
2023-05-22T06:18:18.678Z,15.60
2023-05-22T06:22:36.095Z,15.40
2023-05-22T06:26:53.385Z,15.55
2023-05-22T06:31:11.003Z,13.93
2023-05-22T06:35:28.988Z,13.88
2023-05-22T06:39:46.318Z,12.57
2023-05-22T06:44:03.829Z,15.13
2023-05-22T06:48:21.101Z,15.63
2023-05-22T06:52:39.144Z,12.85
2023-05-22T06:56:57.224Z,15.43
2023-05-22T07:01:14.726Z,11.37
2023-05-22T07:05:32.042Z,12.00
2023-05-22T07:09:49.288Z,13.75
2023-05-22T07:14:08.212Z,13.88
2023-05-22T07:18:25.769Z,12.95
2023-05-22T07:22:43.106Z,10.20
2023-05-22T07:27:00.665Z,10.73
2023-05-22T07:31:17.852Z,10.23
2023-05-22T07:35:35.474Z,11.50
2023-05-22T07:39:52.879Z,10.93
2023-05-22T07:44:10.361Z,10.13
2023-05-22T07:48:27.687Z,8.05
2023-05-22T07:52:45.220Z,8.07
2023-05-22T07:57:03.674Z,10.90
2023-05-22T08:01:21.765Z,7.97
2023-05-22T08:05:38.951Z,7.78
2023-05-22T08:09:56.436Z,9.73
2023-05-22T08:14:14.034Z,8.63
2023-05-22T08:18:31.391Z,15.37
2023-05-22T08:22:48.801Z,9.32
2023-05-22T08:27:06.394Z,7.82
2023-05-22T08:31:23.815Z,9.60
2023-05-22T08:35:41.313Z,8.15
2023-05-22T08:39:58.750Z,7.68
2023-05-22T08:44:16.313Z,9.70
2023-05-22T08:48:33.672Z,12.90
2023-05-22T08:52:52.589Z,7.68
2023-05-22T08:57:10.727Z,8.07
2023-05-22T09:01:35.771Z,8.13
2023-05-22T09:05:53.260Z,10.73
2023-05-22T09:10:10.826Z,12.33
2023-05-22T09:14:28.222Z,8.93
2023-05-22T09:18:46.536Z,7.13
2023-05-22T09:27:28.312Z,6.85
2023-05-22T09:31:45.852Z,9.75
2023-05-22T09:36:04.858Z,7.40
2023-05-22T09:40:22.213Z,7.07
2023-05-22T09:44:39.999Z,7.93
2023-05-22T09:48:57.367Z,7.30
2023-05-22T09:53:16.913Z,15.10
2023-05-22T09:57:42.988Z,7.32
2023-05-22T10:02:02.265Z,6.47
2023-05-22T10:06:22.657Z,10.23
2023-05-22T10:10:42.769Z,6.85
2023-05-22T10:15:02.969Z,7.85
2023-05-22T10:19:21.514Z,9.93
2023-05-22T10:23:41.067Z,9.85
2023-05-22T10:28:00.448Z,8.85
2023-05-22T10:32:44.181Z,13.85
2023-05-22T10:37:30.512Z,7.82
2023-05-22T10:41:48.300Z,8.27
2023-05-22T10:46:07.410Z,6.28
2023-05-22T10:50:25.025Z,8.55
2023-05-22T10:54:46.343Z,4.90
2023-05-22T10:59:06.008Z,8.98
2023-05-22T11:03:23.699Z,8.38
2023-05-22T11:07:41.567Z,5.68
2023-05-22T11:12:17.827Z,7.40
2023-05-22T11:16:37.832Z,5.93
2023-05-22T11:20:55.974Z,6.07
2023-05-22T11:29:35.583Z,5.15
2023-05-22T11:33:53.772Z,6.30
2023-05-22T11:38:11.849Z,5.35
2023-05-22T11:46:46.919Z,7.85
2023-05-22T11:51:05.053Z,5.70
2023-05-22T11:59:40.480Z,8.82
2023-05-22T12:03:57.940Z,8.13
2023-05-22T12:08:15.338Z,10.63
2023-05-22T12:12:32.608Z,8.85
2023-05-22T12:16:52.534Z,12.68
2023-05-22T12:21:11.271Z,7.28
2023-05-22T12:25:37.265Z,6.97
2023-05-22T12:29:56.516Z,8.48
2023-05-22T12:34:16.164Z,7.97
2023-05-22T12:38:35.608Z,6.65
2023-05-22T12:42:54.640Z,6.57
2023-05-22T12:47:12.301Z,6.75
2023-05-22T12:51:31.730Z,6.35
2023-05-22T12:55:49.276Z,9.15
2023-05-22T13:00:07.323Z,5.27
2023-05-22T13:04:24.655Z,6.30
2023-05-22T13:08:42.107Z,6.73
2023-05-22T13:12:59.430Z,7.37
2023-05-22T13:17:16.889Z,4.93
2023-05-22T13:21:34.318Z,5.00
2023-05-22T13:25:51.658Z,4.93
2023-05-22T13:30:09.314Z,6.67
2023-05-22T13:34:29.568Z,6.00
2023-05-22T13:38:47.390Z,4.82
2023-05-22T13:43:04.956Z,7.70
2023-05-22T13:47:23.557Z,6.47
2023-05-22T13:51:41.323Z,9.85
2023-05-22T13:55:58.758Z,8.93
2023-05-22T14:00:16.686Z,8.03
2023-05-22T14:04:34.684Z,6.88
2023-05-22T14:08:52.008Z,5.57
2023-05-22T14:13:09.256Z,6.97
2023-05-22T14:17:28.791Z,13.47
2023-05-22T14:21:49.164Z,4.80
2023-05-22T14:26:06.592Z,5.15
2023-05-22T14:30:24.504Z,8.23
2023-05-22T14:34:42.092Z,5.80
2023-05-22T14:39:02.857Z,6.07
2023-05-22T14:43:20.130Z,6.32
2023-05-22T14:47:37.572Z,7.07
2023-05-22T14:51:57.383Z,6.38
2023-05-22T14:56:14.646Z,9.75
2023-05-22T15:00:32.185Z,11.40
2023-05-22T15:04:49.735Z,6.45
2023-05-22T15:09:07.351Z,6.33
2023-05-22T15:13:27.085Z,7.32
2023-05-22T15:17:44.388Z,7.60
2023-05-22T15:22:15.731Z,10.90
2023-05-22T15:26:36.508Z,6.20
2023-05-22T15:30:53.799Z,5.13
2023-05-22T15:35:13.886Z,6.82
2023-05-22T15:39:31.509Z,8.25
2023-05-22T15:43:55.318Z,9.07
2023-05-22T15:48:13.742Z,5.65
2023-05-22T15:52:31.222Z,5.73
2023-05-22T15:56:49.360Z,5.47
2023-05-22T16:01:07.925Z,6.85
2023-05-22T16:05:25.279Z,7.88
2023-05-22T16:09:43.871Z,5.47
2023-05-22T16:14:01.323Z,5.15
2023-05-22T16:18:20.961Z,13.93
2023-05-22T16:22:48.277Z,5.70
2023-05-22T16:27:06.426Z,5.43
2023-05-22T16:31:23.759Z,10.33
2023-05-22T16:35:41.418Z,7.30
2023-05-22T16:39:58.912Z,11.88
2023-05-22T16:44:16.135Z,12.45
2023-05-22T16:48:33.591Z,11.30
2023-05-22T16:52:50.954Z,7.03
2023-05-22T16:57:08.149Z,8.88
2023-05-22T17:01:26.055Z,10.23
2023-05-22T17:05:43.601Z,8.67
2023-05-22T17:10:01.286Z,6.35
2023-05-22T17:14:21.589Z,7.43
2023-05-22T17:18:38.811Z,9.93
2023-05-22T17:22:56.395Z,8.88
2023-05-22T17:27:20.768Z,7.93
2023-05-22T17:31:49.083Z,6.35
2023-05-22T17:36:06.412Z,6.53
2023-05-22T17:40:32.514Z,6.60
2023-05-22T17:44:57.905Z,8.15
2023-05-22T17:49:15.562Z,6.80
2023-05-22T17:53:34.887Z,5.45
2023-05-22T17:57:53.832Z,6.35
2023-05-22T18:02:11.304Z,8.57
2023-05-22T18:06:29.511Z,7.00
2023-05-22T18:10:47.111Z,10.55
2023-05-22T18:15:04.844Z,9.60
2023-05-22T18:19:22.245Z,6.05
2023-05-22T18:23:39.557Z,6.15
2023-05-22T18:27:56.847Z,9.98
2023-05-22T18:32:14.166Z,9.50
2023-05-22T18:36:31.953Z,5.00
2023-05-22T18:40:49.550Z,5.23
2023-05-22T18:45:07.600Z,8.68
2023-05-22T18:49:24.958Z,19.13
2023-05-22T18:53:42.681Z,18.17
2023-05-22T18:58:00.006Z,23.77
2023-05-22T19:02:21.568Z,13.82
2023-05-22T19:06:42.246Z,16.90
2023-05-22T19:11:00.035Z,26.70
2023-05-22T19:15:17.733Z,19.35
2023-05-22T19:19:35.322Z,18.33
2023-05-22T19:23:52.839Z,31.65
2023-05-22T19:28:10.060Z,21.27
2023-05-22T19:32:27.718Z,22.38
2023-05-22T19:36:45.355Z,21.00
2023-05-22T19:41:02.551Z,13.13
2023-05-22T19:45:20.032Z,22.23
2023-05-22T19:49:39.107Z,25.23
2023-05-22T19:54:08.235Z,26.83
2023-05-22T19:58:28.627Z,20.17
2023-05-22T20:02:47.981Z,17.67
2023-05-22T20:07:05.800Z,19.60
2023-05-22T20:11:23.108Z,33.90
2023-05-22T20:15:42.819Z,28.33
2023-05-22T20:20:00.761Z,28.05
2023-05-22T20:24:21.178Z,27.48
2023-05-22T20:28:38.641Z,33.38
2023-05-22T20:32:55.988Z,24.38
2023-05-22T20:37:13.695Z,23.67
2023-05-22T20:41:31.730Z,14.13
2023-05-22T20:45:49.153Z,19.97
2023-05-22T20:50:07.172Z,22.08
2023-05-22T20:54:24.614Z,35.53
2023-05-22T20:58:42.620Z,40.33
2023-05-22T21:03:10.259Z,39.37
2023-05-22T21:07:28.409Z,41.40
2023-05-22T21:11:45.828Z,32.28
2023-05-22T21:16:03.195Z,25.52
2023-05-22T21:20:20.533Z,22.30
2023-05-22T21:24:37.760Z,23.00
2023-05-22T21:28:55.114Z,22.70
2023-05-22T21:33:13.274Z,30.17
2023-05-22T21:37:31.470Z,48.20
2023-05-22T21:41:49.985Z,32.63
2023-05-22T21:46:07.555Z,19.52
2023-05-22T21:50:25.397Z,27.48
2023-05-22T21:54:42.738Z,30.95
2023-05-22T21:59:00.072Z,58.60
2023-05-22T22:03:17.718Z,23.35
2023-05-22T22:07:35.602Z,20.48
2023-05-22T22:11:53.018Z,27.38
2023-05-22T22:16:10.415Z,15.75
2023-05-22T22:24:57.133Z,18.23
2023-05-22T22:29:14.373Z,19.92
2023-05-22T22:33:32.826Z,18.95
2023-05-22T22:37:51.024Z,15.13
2023-05-22T22:42:08.701Z,17.93
2023-05-22T22:46:26.673Z,22.88
2023-05-22T22:50:44.176Z,19.57
2023-05-22T22:55:01.428Z,24.25
2023-05-22T22:59:19.167Z,24.00
2023-05-22T23:03:36.419Z,34.17
2023-05-22T23:07:53.810Z,33.05
2023-05-22T23:12:11.233Z,35.88
2023-05-22T23:16:28.525Z,30.27
2023-05-22T23:20:46.337Z,35.63
2023-05-22T23:25:03.732Z,28.60
2023-05-22T23:29:21.110Z,34.58
2023-05-22T23:33:39.162Z,30.40
2023-05-22T23:37:56.428Z,24.90
2023-05-22T23:42:13.930Z,38.33
2023-05-22T23:46:31.363Z,28.65
2023-05-22T23:50:48.864Z,26.35
2023-05-22T23:55:06.749Z,19.17
2023-05-22T23:59:24.239Z,41.97
